sensor_id;sensor_type;location;lat;lon;timestamp;pressure;altitude;pressure_sealevel;temperature;humidity
64294;BME280;50636;45.596;5.258;2023-04-25T00:01:36;98316.03;;;13.90;55.61
64294;BME280;50636;45.596;5.258;2023-04-25T00:04:03;98312.16;;;13.69;56.53
64294;BME280;50636;45.596;5.258;2023-04-25T00:06:34;98317.19;;;13.58;56.80
64294;BME280;50636;45.596;5.258;2023-04-25T00:09:03;98316.59;;;13.45;56.62
64294;BME280;50636;45.596;5.258;2023-04-25T00:11:29;98309.03;;;13.36;57.32
64294;BME280;50636;45.596;5.258;2023-04-25T00:13:56;98313.25;;;13.37;57.41
64294;BME280;50636;45.596;5.258;2023-04-25T00:16:22;98311.16;;;13.28;57.49
64294;BME280;50636;45.596;5.258;2023-04-25T00:18:49;98308.63;;;13.21;57.87
64294;BME280;50636;45.596;5.258;2023-04-25T00:21:18;98316.84;;;13.13;57.84
64294;BME280;50636;45.596;5.258;2023-04-25T00:23:45;98314.97;;;13.02;57.79
64294;BME280;50636;45.596;5.258;2023-04-25T00:26:11;98318.19;;;13.04;58.10
64294;BME280;50636;45.596;5.258;2023-04-25T00:28:38;98320.75;;;13.10;58.59
64294;BME280;50636;45.596;5.258;2023-04-25T00:31:04;98318.81;;;13.17;58.28
64294;BME280;50636;45.596;5.258;2023-04-25T00:33:30;98301.06;;;13.25;58.50
64294;BME280;50636;45.596;5.258;2023-04-25T00:35:56;98297.41;;;13.26;58.36
64294;BME280;50636;45.596;5.258;2023-04-25T00:38:21;98299.44;;;13.24;58.19
64294;BME280;50636;45.596;5.258;2023-04-25T00:40:47;98294.75;;;13.26;58.15
64294;BME280;50636;45.596;5.258;2023-04-25T00:43:13;98299.81;;;13.27;58.39
64294;BME280;50636;45.596;5.258;2023-04-25T00:45:39;98293.97;;;13.25;58.25
64294;BME280;50636;45.596;5.258;2023-04-25T00:48:05;98285.38;;;13.18;58.09
64294;BME280;50636;45.596;5.258;2023-04-25T00:50:33;98283.97;;;13.15;57.88
64294;BME280;50636;45.596;5.258;2023-04-25T00:52:59;98287.09;;;13.12;58.08
64294;BME280;50636;45.596;5.258;2023-04-25T00:55:26;98292.44;;;13.06;58.03
64294;BME280;50636;45.596;5.258;2023-04-25T00:57:52;98278.81;;;13.09;58.10
64294;BME280;50636;45.596;5.258;2023-04-25T01:00:18;98275.72;;;13.12;58.11
64294;BME280;50636;45.596;5.258;2023-04-25T01:02:45;98274.13;;;13.11;58.41
64294;BME280;50636;45.596;5.258;2023-04-25T01:05:12;98268.28;;;13.09;58.32
64294;BME280;50636;45.596;5.258;2023-04-25T01:07:38;98274.00;;;13.06;58.30
64294;BME280;50636;45.596;5.258;2023-04-25T01:10:05;98272.25;;;12.99;58.47
64294;BME280;50636;45.596;5.258;2023-04-25T01:12:31;98271.78;;;12.91;58.78
64294;BME280;50636;45.596;5.258;2023-04-25T01:14:57;98276.47;;;12.89;59.30
64294;BME280;50636;45.596;5.258;2023-04-25T01:17:23;98272.47;;;12.86;59.29
64294;BME280;50636;45.596;5.258;2023-04-25T01:19:49;98274.06;;;12.87;59.53
64294;BME280;50636;45.596;5.258;2023-04-25T01:22:16;98274.44;;;12.91;59.50
64294;BME280;50636;45.596;5.258;2023-04-25T01:24:42;98271.78;;;12.91;59.68
64294;BME280;50636;45.596;5.258;2023-04-25T01:27:09;98265.59;;;12.85;59.51
64294;BME280;50636;45.596;5.258;2023-04-25T01:29:35;98269.34;;;12.77;59.89
64294;BME280;50636;45.596;5.258;2023-04-25T01:32:01;98271.28;;;12.70;59.85
64294;BME280;50636;45.596;5.258;2023-04-25T01:34:27;98270.56;;;12.63;59.98
64294;BME280;50636;45.596;5.258;2023-04-25T01:36:53;98274.03;;;12.45;60.49
64294;BME280;50636;45.596;5.258;2023-04-25T01:39:19;98271.34;;;12.33;60.90
64294;BME280;50636;45.596;5.258;2023-04-25T01:41:48;98278.03;;;12.17;61.22
64294;BME280;50636;45.596;5.258;2023-04-25T01:44:15;98281.09;;;12.14;61.79
64294;BME280;50636;45.596;5.258;2023-04-25T01:46:41;98282.47;;;12.17;61.63
64294;BME280;50636;45.596;5.258;2023-04-25T01:49:07;98288.78;;;12.16;61.43
64294;BME280;50636;45.596;5.258;2023-04-25T01:51:33;98292.13;;;12.23;61.59
64294;BME280;50636;45.596;5.258;2023-04-25T01:53:59;98298.84;;;12.37;61.32
64294;BME280;50636;45.596;5.258;2023-04-25T01:56:25;98310.50;;;12.60;60.03
64294;BME280;50636;45.596;5.258;2023-04-25T01:58:55;98311.94;;;12.74;59.01
64294;BME280;50636;45.596;5.258;2023-04-25T02:01:20;98307.94;;;12.84;58.25
64294;BME280;50636;45.596;5.258;2023-04-25T02:03:46;98310.28;;;13.04;56.86
64294;BME280;50636;45.596;5.258;2023-04-25T02:06:12;98316.63;;;13.14;56.39
64294;BME280;50636;45.596;5.258;2023-04-25T02:08:37;98309.34;;;13.28;55.72
64294;BME280;50636;45.596;5.258;2023-04-25T02:11:03;98308.91;;;13.43;55.88
64294;BME280;50636;45.596;5.258;2023-04-25T02:13:29;98311.09;;;13.58;54.83
64294;BME280;50636;45.596;5.258;2023-04-25T02:15:55;98316.03;;;13.54;54.53
64294;BME280;50636;45.596;5.258;2023-04-25T02:18:21;98314.19;;;13.43;54.58
64294;BME280;50636;45.596;5.258;2023-04-25T02:20:47;98315.09;;;13.37;54.88
64294;BME280;50636;45.596;5.258;2023-04-25T02:23:12;98306.41;;;13.36;55.19
64294;BME280;50636;45.596;5.258;2023-04-25T02:25:40;98306.75;;;13.40;55.47
64294;BME280;50636;45.596;5.258;2023-04-25T02:28:06;98312.47;;;13.49;55.19
64294;BME280;50636;45.596;5.258;2023-04-25T02:30:32;98311.91;;;13.58;55.27
64294;BME280;50636;45.596;5.258;2023-04-25T02:32:59;98310.31;;;13.69;54.93
64294;BME280;50636;45.596;5.258;2023-04-25T02:35:25;98313.06;;;13.74;55.34
64294;BME280;50636;45.596;5.258;2023-04-25T02:37:50;98306.41;;;13.72;55.02
64294;BME280;50636;45.596;5.258;2023-04-25T02:40:16;98308.59;;;13.75;54.93
64294;BME280;50636;45.596;5.258;2023-04-25T02:42:42;98308.00;;;13.85;54.85
64294;BME280;50636;45.596;5.258;2023-04-25T02:45:08;98303.88;;;13.89;54.38
64294;BME280;50636;45.596;5.258;2023-04-25T02:47:34;98307.09;;;13.91;54.06
64294;BME280;50636;45.596;5.258;2023-04-25T02:50:00;98301.81;;;13.91;54.14
64294;BME280;50636;45.596;5.258;2023-04-25T02:52:26;98302.16;;;13.94;54.22
64294;BME280;50636;45.596;5.258;2023-04-25T02:54:51;98305.38;;;13.96;54.09
64294;BME280;50636;45.596;5.258;2023-04-25T02:57:17;98306.50;;;14.01;53.91
64294;BME280;50636;45.596;5.258;2023-04-25T02:59:43;98308.00;;;13.96;53.76
64294;BME280;50636;45.596;5.258;2023-04-25T03:02:10;98315.22;;;13.89;54.28
64294;BME280;50636;45.596;5.258;2023-04-25T03:04:35;98312.72;;;13.83;54.44
64294;BME280;50636;45.596;5.258;2023-04-25T03:07:01;98319.34;;;13.85;54.22
64294;BME280;50636;45.596;5.258;2023-04-25T03:09:27;98318.09;;;13.76;54.40
64294;BME280;50636;45.596;5.258;2023-04-25T03:11:53;98317.19;;;13.70;55.08
64294;BME280;50636;45.596;5.258;2023-04-25T03:14:19;98309.72;;;13.67;55.06
64294;BME280;50636;45.596;5.258;2023-04-25T03:16:44;98305.16;;;13.51;55.36
64294;BME280;50636;45.596;5.258;2023-04-25T03:19:11;98306.63;;;13.35;56.07
64294;BME280;50636;45.596;5.258;2023-04-25T03:21:37;98302.81;;;13.31;55.82
64294;BME280;50636;45.596;5.258;2023-04-25T03:24:04;98306.53;;;13.11;56.35
64294;BME280;50636;45.596;5.258;2023-04-25T03:26:30;98304.00;;;13.05;57.22
64294;BME280;50636;45.596;5.258;2023-04-25T03:28:56;98295.63;;;13.08;57.29
64294;BME280;50636;45.596;5.258;2023-04-25T03:31:21;98291.66;;;13.17;57.56
64294;BME280;50636;45.596;5.258;2023-04-25T03:33:48;98292.59;;;13.23;57.48
64294;BME280;50636;45.596;5.258;2023-04-25T03:36:13;98301.66;;;13.27;57.46
64294;BME280;50636;45.596;5.258;2023-04-25T03:38:39;98294.75;;;13.26;57.00
64294;BME280;50636;45.596;5.258;2023-04-25T03:41:06;98298.41;;;13.13;57.51
64294;BME280;50636;45.596;5.258;2023-04-25T03:43:32;98302.97;;;12.94;57.51
64294;BME280;50636;45.596;5.258;2023-04-25T03:45:58;98310.81;;;12.82;58.39
64294;BME280;50636;45.596;5.258;2023-04-25T03:48:25;98314.69;;;12.79;57.90
64294;BME280;50636;45.596;5.258;2023-04-25T03:50:52;98316.41;;;12.86;58.89
64294;BME280;50636;45.596;5.258;2023-04-25T03:53:18;98313.59;;;12.99;58.65
64294;BME280;50636;45.596;5.258;2023-04-25T03:55:44;98321.06;;;13.02;58.78
64294;BME280;50636;45.596;5.258;2023-04-25T03:58:10;98316.38;;;13.04;58.69
64294;BME280;50636;45.596;5.258;2023-04-25T04:00:36;98320.72;;;12.98;58.24
64294;BME280;50636;45.596;5.258;2023-04-25T04:03:02;98316.25;;;12.99;58.50
64294;BME280;50636;45.596;5.258;2023-04-25T04:05:28;98322.78;;;12.96;58.37
64294;BME280;50636;45.596;5.258;2023-04-25T04:07:54;98321.47;;;12.87;58.60
64294;BME280;50636;45.596;5.258;2023-04-25T04:10:21;98321.03;;;12.90;59.44
64294;BME280;50636;45.596;5.258;2023-04-25T04:12:46;98318.34;;;13.09;59.67
64294;BME280;50636;45.596;5.258;2023-04-25T04:15:12;98314.47;;;13.23;59.00
64294;BME280;50636;45.596;5.258;2023-04-25T04:17:38;98326.38;;;13.26;58.72
64294;BME280;50636;45.596;5.258;2023-04-25T04:20:05;98313.75;;;13.04;59.01
64294;BME280;50636;45.596;5.258;2023-04-25T04:22:31;98315.19;;;12.88;59.45
64294;BME280;50636;45.596;5.258;2023-04-25T04:24:57;98320.25;;;12.90;59.64
64294;BME280;50636;45.596;5.258;2023-04-25T04:27:23;98328.22;;;12.83;59.76
64294;BME280;50636;45.596;5.258;2023-04-25T04:29:49;98322.78;;;12.96;60.19
64294;BME280;50636;45.596;5.258;2023-04-25T04:32:16;98330.47;;;13.10;60.32
64294;BME280;50636;45.596;5.258;2023-04-25T04:34:42;98330.75;;;13.20;59.95
64294;BME280;50636;45.596;5.258;2023-04-25T04:37:08;98342.44;;;13.24;59.71
64294;BME280;50636;45.596;5.258;2023-04-25T04:39:35;98339.56;;;13.26;59.87
64294;BME280;50636;45.596;5.258;2023-04-25T04:42:01;98340.59;;;13.25;59.57
64294;BME280;50636;45.596;5.258;2023-04-25T04:44:30;98337.81;;;13.19;59.51
64294;BME280;50636;45.596;5.258;2023-04-25T04:46:59;98345.13;;;13.06;59.25
64294;BME280;50636;45.596;5.258;2023-04-25T04:49:25;98346.84;;;13.00;60.16
64294;BME280;50636;45.596;5.258;2023-04-25T04:51:51;98342.63;;;13.11;60.36
64294;BME280;50636;45.596;5.258;2023-04-25T04:54:17;98347.75;;;13.36;60.14
64294;BME280;50636;45.596;5.258;2023-04-25T04:56:43;98355.94;;;13.46;59.29
64294;BME280;50636;45.596;5.258;2023-04-25T04:59:09;98348.69;;;13.42;59.42
64294;BME280;50636;45.596;5.258;2023-04-25T05:01:36;98355.00;;;13.41;59.12
64294;BME280;50636;45.596;5.258;2023-04-25T05:04:02;98362.78;;;13.47;59.12
64294;BME280;50636;45.596;5.258;2023-04-25T05:06:29;98360.88;;;13.66;59.04
64294;BME280;50636;45.596;5.258;2023-04-25T05:08:57;98355.72;;;13.83;58.54
64294;BME280;50636;45.596;5.258;2023-04-25T05:11:26;98367.28;;;13.94;58.04
64294;BME280;50636;45.596;5.258;2023-04-25T05:13:52;98371.19;;;14.03;57.81
64294;BME280;50636;45.596;5.258;2023-04-25T05:16:18;98366.38;;;14.12;57.43
64294;BME280;50636;45.596;5.258;2023-04-25T05:18:44;98375.31;;;14.23;57.18
64294;BME280;50636;45.596;5.258;2023-04-25T05:21:10;98381.19;;;14.25;57.12
64294;BME280;50636;45.596;5.258;2023-04-25T05:23:35;98390.22;;;14.29;56.66
64294;BME280;50636;45.596;5.258;2023-04-25T05:26:01;98397.22;;;14.35;56.40
64294;BME280;50636;45.596;5.258;2023-04-25T05:28:27;98393.88;;;14.39;56.43
64294;BME280;50636;45.596;5.258;2023-04-25T05:30:53;98401.31;;;14.43;56.35
64294;BME280;50636;45.596;5.258;2023-04-25T05:33:19;98394.69;;;14.40;55.90
64294;BME280;50636;45.596;5.258;2023-04-25T05:35:45;98394.03;;;14.21;55.72
64294;BME280;50636;45.596;5.258;2023-04-25T05:38:11;98389.78;;;13.96;56.30
64294;BME280;50636;45.596;5.258;2023-04-25T05:40:36;98396.19;;;13.77;56.79
64294;BME280;50636;45.596;5.258;2023-04-25T05:43:02;98396.19;;;13.65;57.46
64294;BME280;50636;45.596;5.258;2023-04-25T05:45:28;98394.31;;;13.54;57.44
64294;BME280;50636;45.596;5.258;2023-04-25T05:47:54;98396.72;;;13.55;57.39
64294;BME280;50636;45.596;5.258;2023-04-25T05:50:19;98405.69;;;13.54;57.34
64294;BME280;50636;45.596;5.258;2023-04-25T05:52:45;98412.09;;;13.58;57.69
64294;BME280;50636;45.596;5.258;2023-04-25T05:55:11;98413.03;;;13.76;57.22
64294;BME280;50636;45.596;5.258;2023-04-25T05:57:37;98412.38;;;14.04;56.69
64294;BME280;50636;45.596;5.258;2023-04-25T06:00:08;98412.38;;;14.28;56.24
64294;BME280;50636;45.596;5.258;2023-04-25T06:02:34;98410.97;;;14.61;55.29
64294;BME280;50636;45.596;5.258;2023-04-25T06:05:00;98406.19;;;14.86;54.32
64294;BME280;50636;45.596;5.258;2023-04-25T06:07:29;98408.31;;;15.30;53.61
64294;BME280;50636;45.596;5.258;2023-04-25T06:09:56;98406.84;;;16.18;52.07
64294;BME280;50636;45.596;5.258;2023-04-25T06:12:21;98401.31;;;16.81;50.25
64294;BME280;50636;45.596;5.258;2023-04-25T06:14:47;98412.88;;;16.97;50.00
64294;BME280;50636;45.596;5.258;2023-04-25T06:17:13;98412.88;;;16.97;49.27
64294;BME280;50636;45.596;5.258;2023-04-25T06:19:39;98413.41;;;16.77;48.94
64294;BME280;50636;45.596;5.258;2023-04-25T06:22:05;98414.88;;;16.46;49.12
64294;BME280;50636;45.596;5.258;2023-04-25T06:24:32;98416.28;;;16.31;50.20
64294;BME280;50636;45.596;5.258;2023-04-25T06:26:58;98411.75;;;16.10;53.65
64294;BME280;50636;45.596;5.258;2023-04-25T06:29:24;98425.09;;;15.69;57.07
64294;BME280;50636;45.596;5.258;2023-04-25T06:31:49;98421.38;;;15.36;59.44
64294;BME280;50636;45.596;5.258;2023-04-25T06:34:15;98431.38;;;15.17;62.00
64294;BME280;50636;45.596;5.258;2023-04-25T06:36:41;98426.13;;;15.06;64.45
64294;BME280;50636;45.596;5.258;2023-04-25T06:39:07;98418.63;;;15.14;65.95
64294;BME280;50636;45.596;5.258;2023-04-25T06:41:34;98414.69;;;15.46;65.88
64294;BME280;50636;45.596;5.258;2023-04-25T06:44:00;98414.47;;;15.81;65.62
64294;BME280;50636;45.596;5.258;2023-04-25T06:46:26;98412.56;;;15.93;64.67
64294;BME280;50636;45.596;5.258;2023-04-25T06:48:52;98411.03;;;15.97;63.15
64294;BME280;50636;45.596;5.258;2023-04-25T06:51:18;98410.38;;;16.07;61.77
64294;BME280;50636;45.596;5.258;2023-04-25T06:53:43;98407.88;;;17.01;59.70
64294;BME280;50636;45.596;5.258;2023-04-25T06:56:09;98409.53;;;17.34;59.18
64294;BME280;50636;45.596;5.258;2023-04-25T06:58:35;98411.63;;;17.32;58.14
64294;BME280;50636;45.596;5.258;2023-04-25T07:01:01;98412.28;;;17.17;57.75
64294;BME280;50636;45.596;5.258;2023-04-25T07:03:26;98408.16;;;17.04;56.96
64294;BME280;50636;45.596;5.258;2023-04-25T07:05:52;98414.28;;;17.05;55.69
64294;BME280;50636;45.596;5.258;2023-04-25T07:08:18;98413.56;;;16.87;55.51
64294;BME280;50636;45.596;5.258;2023-04-25T07:10:44;98424.03;;;16.77;55.72
64294;BME280;50636;45.596;5.258;2023-04-25T07:13:11;98409.25;;;16.81;54.49
64294;BME280;50636;45.596;5.258;2023-04-25T07:15:37;98413.19;;;17.01;53.86
64294;BME280;50636;45.596;5.258;2023-04-25T07:18:03;98412.75;;;17.09;52.36
64294;BME280;50636;45.596;5.258;2023-04-25T07:20:29;98411.09;;;17.03;52.28
64294;BME280;50636;45.596;5.258;2023-04-25T07:22:56;98420.50;;;17.15;51.78
64294;BME280;50636;45.596;5.258;2023-04-25T07:25:22;98420.28;;;17.22;50.34
64294;BME280;50636;45.596;5.258;2023-04-25T07:27:48;98422.69;;;17.24;50.89
64294;BME280;50636;45.596;5.258;2023-04-25T07:30:14;98428.09;;;17.61;49.17
64294;BME280;50636;45.596;5.258;2023-04-25T07:32:40;98438.25;;;18.02;46.97
64294;BME280;50636;45.596;5.258;2023-04-25T07:35:06;98424.31;;;17.84;47.46
64294;BME280;50636;45.596;5.258;2023-04-25T07:37:35;98431.78;;;17.60;47.38
64294;BME280;50636;45.596;5.258;2023-04-25T07:40:03;98444.97;;;17.50;46.90
64294;BME280;50636;45.596;5.258;2023-04-25T07:42:30;98444.13;;;17.44;47.43
64294;BME280;50636;45.596;5.258;2023-04-25T07:44:55;98446.63;;;18.21;46.19
64294;BME280;50636;45.596;5.258;2023-04-25T07:47:21;98435.69;;;19.33;44.00
64294;BME280;50636;45.596;5.258;2023-04-25T07:49:47;98434.72;;;21.41;39.32
64294;BME280;50636;45.596;5.258;2023-04-25T07:52:13;98437.94;;;23.27;35.30
64294;BME280;50636;45.596;5.258;2023-04-25T07:54:39;98423.50;;;25.33;31.48
64294;BME280;50636;45.596;5.258;2023-04-25T07:57:05;98420.41;;;27.48;28.53
64294;BME280;50636;45.596;5.258;2023-04-25T07:59:34;98429.19;;;28.86;25.72
64294;BME280;50636;45.596;5.258;2023-04-25T08:02:00;98431.47;;;29.26;24.63
64294;BME280;50636;45.596;5.258;2023-04-25T08:04:26;98423.59;;;29.88;23.77
64294;BME280;50636;45.596;5.258;2023-04-25T08:06:52;98414.81;;;30.37;23.42
64294;BME280;50636;45.596;5.258;2023-04-25T08:09:19;98416.03;;;30.39;22.21
64294;BME280;50636;45.596;5.258;2023-04-25T08:11:45;98426.41;;;30.37;22.11
64294;BME280;50636;45.596;5.258;2023-04-25T08:14:12;98422.09;;;30.85;21.80
64294;BME280;50636;45.596;5.258;2023-04-25T08:16:38;98428.97;;;31.08;21.53
64294;BME280;50636;45.596;5.258;2023-04-25T08:19:04;98412.66;;;31.60;20.45
64294;BME280;50636;45.596;5.258;2023-04-25T08:21:30;98428.38;;;31.14;20.12
64294;BME280;50636;45.596;5.258;2023-04-25T08:23:57;98434.34;;;29.63;20.47
64294;BME280;50636;45.596;5.258;2023-04-25T08:26:24;98455.63;;;27.25;23.13
64294;BME280;50636;45.596;5.258;2023-04-25T08:28:50;98449.81;;;25.22;25.49
64294;BME280;50636;45.596;5.258;2023-04-25T08:31:17;98455.25;;;24.20;27.01
64294;BME280;50636;45.596;5.258;2023-04-25T08:33:43;98462.19;;;23.55;27.94
64294;BME280;50636;45.596;5.258;2023-04-25T08:36:10;98476.44;;;22.64;28.17
64294;BME280;50636;45.596;5.258;2023-04-25T08:38:35;98476.22;;;23.47;28.46
64294;BME280;50636;45.596;5.258;2023-04-25T08:41:02;98478.16;;;24.86;27.06
64294;BME280;50636;45.596;5.258;2023-04-25T08:43:29;98470.81;;;26.01;25.56
64294;BME280;50636;45.596;5.258;2023-04-25T08:46:00;98468.25;;;27.16;23.74
64294;BME280;50636;45.596;5.258;2023-04-25T08:48:27;98472.38;;;28.09;22.84
64294;BME280;50636;45.596;5.258;2023-04-25T08:50:55;98483.47;;;28.17;22.42
64294;BME280;50636;45.596;5.258;2023-04-25T08:53:31;98486.63;;;28.19;22.46
64294;BME280;50636;45.596;5.258;2023-04-25T08:55:59;98473.66;;;28.89;20.80
64294;BME280;50636;45.596;5.258;2023-04-25T08:58:28;98473.97;;;28.87;20.60
64294;BME280;50636;45.596;5.258;2023-04-25T09:00:53;98479.88;;;27.95;21.94
64294;BME280;50636;45.596;5.258;2023-04-25T09:03:20;98481.06;;;28.24;20.99
64294;BME280;50636;45.596;5.258;2023-04-25T09:05:46;98481.72;;;28.12;20.41
64294;BME280;50636;45.596;5.258;2023-04-25T09:08:12;98480.53;;;27.57;21.09
64294;BME280;50636;45.596;5.258;2023-04-25T09:10:38;98486.19;;;26.09;22.24
64294;BME280;50636;45.596;5.258;2023-04-25T09:13:05;98486.44;;;24.76;23.56
64294;BME280;50636;45.596;5.258;2023-04-25T09:15:32;98502.31;;;23.79;24.39
64294;BME280;50636;45.596;5.258;2023-04-25T09:18:01;98502.88;;;23.57;25.71
64294;BME280;50636;45.596;5.258;2023-04-25T09:20:28;98495.25;;;25.18;23.68
64294;BME280;50636;45.596;5.258;2023-04-25T09:23:04;98489.31;;;26.97;22.16
64294;BME280;50636;45.596;5.258;2023-04-25T09:25:37;98492.69;;;28.16;20.33
64294;BME280;50636;45.596;5.258;2023-04-25T09:28:05;98489.72;;;28.56;20.17
64294;BME280;50636;45.596;5.258;2023-04-25T09:30:34;98480.28;;;29.00;19.23
64294;BME280;50636;45.596;5.258;2023-04-25T09:33:08;98491.00;;;29.39;19.08
64294;BME280;50636;45.596;5.258;2023-04-25T09:35:42;98490.38;;;30.42;18.32
64294;BME280;50636;45.596;5.258;2023-04-25T09:38:13;98484.63;;;30.80;17.73
64294;BME280;50636;45.596;5.258;2023-04-25T09:40:41;98497.06;;;31.06;17.48
64294;BME280;50636;45.596;5.258;2023-04-25T09:43:19;98500.63;;;31.47;16.42
64294;BME280;50636;45.596;5.258;2023-04-25T09:45:46;98505.38;;;32.07;15.86
64294;BME280;50636;45.596;5.258;2023-04-25T09:48:23;98499.00;;;32.15;16.56
64294;BME280;50636;45.596;5.258;2023-04-25T09:51:10;98497.94;;;32.99;15.39
64294;BME280;50636;45.596;5.258;2023-04-25T09:53:37;98487.97;;;32.87;14.03
64294;BME280;50636;45.596;5.258;2023-04-25T09:56:05;98499.00;;;32.15;14.16
64294;BME280;50636;45.596;5.258;2023-04-25T09:58:36;98492.47;;;31.88;14.62
64294;BME280;50636;45.596;5.258;2023-04-25T10:01:07;98491.75;;;32.19;14.66
64294;BME280;50636;45.596;5.258;2023-04-25T10:03:38;98488.19;;;32.78;14.30
64294;BME280;50636;45.596;5.258;2023-04-25T10:06:09;98506.63;;;32.25;15.25
64294;BME280;50636;45.596;5.258;2023-04-25T10:08:38;98502.38;;;30.41;16.51
64294;BME280;50636;45.596;5.258;2023-04-25T10:11:05;98503.75;;;28.32;18.76
64294;BME280;50636;45.596;5.258;2023-04-25T10:13:34;98498.31;;;26.21;21.24
64294;BME280;50636;45.596;5.258;2023-04-25T10:16:04;98510.72;;;24.38;23.22
64294;BME280;50636;45.596;5.258;2023-04-25T10:18:32;98509.47;;;23.03;25.22
64294;BME280;50636;45.596;5.258;2023-04-25T10:21:00;98516.78;;;22.09;26.30
64294;BME280;50636;45.596;5.258;2023-04-25T10:23:27;98517.66;;;21.60;27.37
64294;BME280;50636;45.596;5.258;2023-04-25T10:25:55;98509.72;;;23.01;26.11
64294;BME280;50636;45.596;5.258;2023-04-25T10:28:21;98508.19;;;25.02;23.00
64294;BME280;50636;45.596;5.258;2023-04-25T10:30:57;98499.97;;;27.19;21.27
64294;BME280;50636;45.596;5.258;2023-04-25T10:33:36;98494.97;;;28.91;18.94
64294;BME280;50636;45.596;5.258;2023-04-25T10:36:30;98487.28;;;30.19;18.46
64294;BME280;50636;45.596;5.258;2023-04-25T10:39:05;98476.25;;;31.22;17.47
64294;BME280;50636;45.596;5.258;2023-04-25T10:41:52;98477.47;;;32.06;16.96
64294;BME280;50636;45.596;5.258;2023-04-25T10:44:18;98478.31;;;31.13;16.49
64294;BME280;50636;45.596;5.258;2023-04-25T10:46:44;98479.97;;;29.65;17.83
64294;BME280;50636;45.596;5.258;2023-04-25T10:49:29;98486.69;;;27.84;19.50
64294;BME280;50636;45.596;5.258;2023-04-25T10:52:10;98491.97;;;26.17;20.56
64294;BME280;50636;45.596;5.258;2023-04-25T10:54:41;98497.16;;;24.62;22.63
64294;BME280;50636;45.596;5.258;2023-04-25T10:57:07;98494.66;;;24.52;22.89
64294;BME280;50636;45.596;5.258;2023-04-25T10:59:33;98486.16;;;25.78;22.01
64294;BME280;50636;45.596;5.258;2023-04-25T11:02:11;98481.94;;;27.46;20.88
64294;BME280;50636;45.596;5.258;2023-04-25T11:04:40;98478.28;;;28.88;18.23
64294;BME280;50636;45.596;5.258;2023-04-25T11:07:51;98460.56;;;29.84;17.76
64294;BME280;50636;45.596;5.258;2023-04-25T11:10:04;98469.53;;;28.92;18.46
64294;BME280;50636;45.596;5.258;2023-04-25T11:12:31;98475.38;;;27.12;19.62
64294;BME280;50636;45.596;5.258;2023-04-25T11:15:05;98477.13;;;25.38;20.72
64294;BME280;50636;45.596;5.258;2023-04-25T11:17:32;98490.28;;;24.09;22.04
64294;BME280;50636;45.596;5.258;2023-04-25T11:19:59;98492.78;;;23.30;23.02
64294;BME280;50636;45.596;5.258;2023-04-25T11:22:27;98484.00;;;24.00;23.20
64294;BME280;50636;45.596;5.258;2023-04-25T11:24:53;98479.66;;;25.57;21.77
64294;BME280;50636;45.596;5.258;2023-04-25T11:27:19;98474.41;;;27.08;20.52
64294;BME280;50636;45.596;5.258;2023-04-25T11:29:46;98459.97;;;28.64;18.87
64294;BME280;50636;45.596;5.258;2023-04-25T11:32:15;98459.63;;;30.01;17.63
64294;BME280;50636;45.596;5.258;2023-04-25T11:34:43;98456.53;;;30.48;16.45
64294;BME280;50636;45.596;5.258;2023-04-25T11:37:10;98459.97;;;28.94;17.48
64294;BME280;50636;45.596;5.258;2023-04-25T11:39:43;98470.63;;;27.18;19.27
64294;BME280;50636;45.596;5.258;2023-04-25T11:42:10;98473.03;;;26.30;19.72
64294;BME280;50636;45.596;5.258;2023-04-25T11:44:38;98469.81;;;27.00;20.37
64294;BME280;50636;45.596;5.258;2023-04-25T11:47:04;98453.84;;;28.46;19.40
64294;BME280;50636;45.596;5.258;2023-04-25T11:49:31;98456.88;;;29.89;18.08
64294;BME280;50636;45.596;5.258;2023-04-25T11:51:57;98449.09;;;30.45;17.10
64294;BME280;50636;45.596;5.258;2023-04-25T11:54:23;98449.00;;;30.54;16.71
64294;BME280;50636;45.596;5.258;2023-04-25T11:56:49;98448.97;;;30.66;16.85
64294;BME280;50636;45.596;5.258;2023-04-25T11:59:15;98448.50;;;30.15;16.84
64294;BME280;50636;45.596;5.258;2023-04-25T12:01:48;98438.47;;;29.27;17.49
64294;BME280;50636;45.596;5.258;2023-04-25T12:04:16;98436.19;;;28.49;18.58
64294;BME280;50636;45.596;5.258;2023-04-25T12:06:44;98448.56;;;28.88;18.55
64294;BME280;50636;45.596;5.258;2023-04-25T12:09:15;98450.56;;;29.63;17.64
64294;BME280;50636;45.596;5.258;2023-04-25T12:11:44;98444.06;;;30.10;17.64
64294;BME280;50636;45.596;5.258;2023-04-25T12:14:25;98447.19;;;30.00;18.11
64294;BME280;50636;45.596;5.258;2023-04-25T12:16:54;98450.88;;;29.83;18.01
64294;BME280;50636;45.596;5.258;2023-04-25T12:19:21;98454.81;;;29.52;17.81
64294;BME280;50636;45.596;5.258;2023-04-25T12:21:48;98459.25;;;27.99;18.78
64294;BME280;50636;45.596;5.258;2023-04-25T12:26:59;98458.66;;;25.22;20.37
64294;BME280;50636;45.596;5.258;2023-04-25T12:29:27;98458.28;;;25.51;20.05
64294;BME280;50636;45.596;5.258;2023-04-25T12:31:55;98457.25;;;25.84;19.69
64294;BME280;50636;45.596;5.258;2023-04-25T12:34:21;98450.41;;;26.31;19.65
64294;BME280;50636;45.596;5.258;2023-04-25T12:36:48;98447.00;;;26.88;18.97
64294;BME280;50636;45.596;5.258;2023-04-25T12:39:15;98442.47;;;27.41;19.04
64294;BME280;50636;45.596;5.258;2023-04-25T12:41:41;98444.63;;;26.96;19.27
64294;BME280;50636;45.596;5.258;2023-04-25T12:44:07;98447.88;;;25.81;20.21
64294;BME280;50636;45.596;5.258;2023-04-25T12:46:33;98462.47;;;24.52;21.37
64294;BME280;50636;45.596;5.258;2023-04-25T12:48:59;98460.78;;;23.58;21.68
64294;BME280;50636;45.596;5.258;2023-04-25T12:51:25;98470.81;;;22.90;22.48
64294;BME280;50636;45.596;5.258;2023-04-25T12:53:53;98471.34;;;22.68;23.83
64294;BME280;50636;45.596;5.258;2023-04-25T12:56:19;98461.31;;;23.03;24.17
64294;BME280;50636;45.596;5.258;2023-04-25T12:58:45;98466.59;;;23.46;23.72
64294;BME280;50636;45.596;5.258;2023-04-25T13:01:11;98465.47;;;24.18;22.93
64294;BME280;50636;45.596;5.258;2023-04-25T13:03:39;98462.19;;;24.81;22.13